Addis, Louisiana
Current Conditions -  °F | °C
As of 6:53 PM on Friday 28 Nov 2014 (Local Time) from KBTR Reporting Station
Clear Clear  
Wind Chill: 50°   Ceiling: Unl
Heat Index: 50°   Visibility: 10mi
Dew Point: 40°   Wind: 9mph
Humidity: 68%   Direction: 110°ESE
Pressure: 30.27"   Gusts: NA
Location:  30.35°N, 91.27°W
Report Text: KBTR 290053Z 11008KT 10SM CLR 10/04 A3027 RMK AO2 SLP249 T01000044
Loading
Personal Weather Stations






























Interactive Weather Map New forecast layout! Learn more

10-Day Weather Forecast

Advertisements
Track Severe Weather on mobile